createdAt,value
2022-10-07T00:01:40.878Z,7.50
2022-10-07T00:04:28.945Z,7.50
2022-10-07T00:07:16.992Z,7.40
2022-10-07T00:10:07.536Z,7.40
2022-10-07T00:12:55.553Z,7.40
2022-10-07T00:15:43.572Z,7.40
2022-10-07T00:18:31.613Z,7.30
2022-10-07T00:21:20.813Z,7.30
2022-10-07T00:24:10.380Z,7.20
2022-10-07T00:26:59.713Z,7.20
2022-10-07T00:29:47.721Z,7.00
2022-10-07T00:32:35.727Z,7.20
2022-10-07T00:35:23.678Z,7.20
2022-10-07T00:38:11.626Z,7.10
2022-10-07T00:40:59.600Z,7.10
2022-10-07T00:43:49.468Z,7.10
2022-10-07T00:46:40.767Z,7.10
2022-10-07T00:49:30.183Z,7.10
2022-10-07T00:52:20.294Z,7.10
2022-10-07T00:55:15.271Z,7.00
2022-10-07T00:58:08.694Z,7.00
2022-10-07T01:00:58.478Z,7.00
2022-10-07T01:03:48.425Z,7.00
2022-10-07T01:06:39.182Z,7.00
2022-10-07T01:09:27.338Z,7.00
2022-10-07T01:12:22.803Z,7.00
2022-10-07T01:15:19.324Z,7.00
2022-10-07T01:18:15.061Z,6.90
2022-10-07T01:21:09.311Z,6.90
2022-10-07T01:24:10.499Z,6.80
2022-10-07T01:27:02.780Z,6.80
2022-10-07T01:29:56.787Z,6.80
2022-10-07T01:36:56.976Z,6.70
2022-10-07T01:39:50.550Z,6.70
2022-10-07T01:42:40.799Z,6.70
2022-10-07T01:45:32.597Z,6.60
2022-10-07T01:48:20.639Z,6.60
2022-10-07T01:51:09.369Z,6.80
2022-10-07T01:54:02.674Z,6.60
2022-10-07T01:57:01.723Z,6.60
2022-10-07T02:00:06.388Z,6.60
2022-10-07T02:03:26.815Z,6.50
2022-10-07T02:06:25.355Z,6.50
2022-10-07T02:09:24.498Z,6.40
2022-10-07T02:12:19.331Z,6.50
2022-10-07T02:15:14.091Z,6.40
2022-10-07T02:18:07.388Z,6.40
2022-10-07T02:20:56.777Z,6.50
2022-10-07T02:23:46.900Z,6.30
2022-10-07T02:26:36.691Z,6.30
2022-10-07T02:29:28.048Z,6.30
2022-10-07T02:32:20.867Z,6.30
2022-10-07T02:35:17.412Z,6.30
2022-10-07T02:38:10.128Z,6.30
2022-10-07T02:41:06.029Z,6.20
2022-10-07T02:43:58.830Z,6.20
2022-10-07T02:46:50.178Z,6.20
2022-10-07T02:49:42.944Z,6.20
2022-10-07T02:52:32.959Z,6.10
2022-10-07T02:55:24.173Z,6.20
2022-10-07T02:58:13.879Z,6.00
2022-10-07T03:01:03.351Z,6.10
2022-10-07T03:03:51.412Z,6.10
2022-10-07T03:06:42.077Z,6.10
2022-10-07T03:09:31.955Z,6.00
2022-10-07T03:12:19.987Z,6.00
2022-10-07T03:15:10.840Z,6.00
2022-10-07T03:17:58.960Z,6.00
2022-10-07T03:20:46.915Z,5.90
2022-10-07T03:23:36.215Z,5.90
2022-10-07T03:26:24.218Z,5.80
2022-10-07T03:29:13.271Z,5.90
2022-10-07T03:32:01.306Z,5.90
2022-10-07T03:34:49.311Z,5.90
2022-10-07T03:37:37.712Z,5.90
2022-10-07T03:40:27.018Z,6.00
2022-10-07T03:43:15.019Z,5.80
2022-10-07T03:46:03.101Z,5.60
2022-10-07T03:48:51.530Z,5.80
2022-10-07T03:51:39.565Z,5.80
2022-10-07T03:54:28.768Z,5.70
2022-10-07T03:57:36.055Z,5.80
2022-10-07T04:00:25.609Z,5.70
2022-10-07T04:03:15.001Z,5.70
2022-10-07T04:06:03.831Z,5.70
2022-10-07T04:08:53.482Z,5.70
2022-10-07T04:11:42.054Z,5.70
2022-10-07T04:14:31.339Z,5.70
2022-10-07T04:17:19.779Z,5.60
2022-10-07T04:20:09.255Z,5.60
2022-10-07T04:22:57.258Z,5.60
2022-10-07T04:25:46.244Z,5.60
2022-10-07T04:28:34.302Z,5.60
2022-10-07T04:31:23.913Z,5.60
2022-10-07T04:34:12.033Z,5.50
2022-10-07T04:37:01.118Z,5.60
2022-10-07T04:40:00.663Z,5.60
2022-10-07T04:43:07.353Z,5.50
2022-10-07T04:46:00.929Z,5.40
2022-10-07T04:48:50.246Z,5.50
2022-10-07T04:51:38.252Z,5.50
2022-10-07T04:54:26.200Z,5.40
2022-10-07T04:57:14.455Z,5.40
2022-10-07T05:00:02.690Z,5.40
2022-10-07T05:02:51.188Z,5.40
2022-10-07T05:05:43.743Z,5.40
2022-10-07T05:08:32.671Z,5.40
2022-10-07T05:11:20.699Z,5.40
2022-10-07T05:14:08.687Z,5.40
2022-10-07T05:16:56.672Z,5.40
2022-10-07T05:19:44.656Z,5.30
2022-10-07T05:22:34.900Z,5.30
2022-10-07T05:25:22.963Z,5.40
2022-10-07T05:28:11.737Z,5.40
2022-10-07T05:31:05.647Z,5.40
2022-10-07T05:33:53.721Z,5.40
2022-10-07T05:36:42.208Z,5.50
2022-10-07T05:39:31.538Z,5.50
2022-10-07T05:42:19.682Z,5.50
2022-10-07T05:45:08.870Z,5.60
2022-10-07T05:47:58.247Z,5.60
2022-10-07T05:50:48.307Z,5.60
2022-10-07T05:53:36.695Z,5.50
2022-10-07T05:56:26.027Z,5.60
2022-10-07T05:59:14.022Z,5.70
2022-10-07T06:02:02.114Z,5.70
2022-10-07T06:04:50.338Z,5.70
2022-10-07T06:07:38.340Z,5.60
2022-10-07T06:10:44.038Z,5.80
2022-10-07T06:13:34.245Z,5.90
2022-10-07T06:16:23.179Z,5.90
2022-10-07T06:19:22.373Z,5.90
2022-10-07T06:22:11.150Z,6.00
2022-10-07T06:25:02.120Z,6.00
2022-10-07T06:27:54.127Z,6.10
2022-10-07T06:30:43.887Z,6.20
2022-10-07T06:33:32.001Z,6.20
2022-10-07T06:36:20.321Z,6.30
2022-10-07T06:39:08.435Z,6.30
2022-10-07T06:41:57.137Z,6.40
2022-10-07T06:44:45.223Z,6.50
2022-10-07T06:47:36.061Z,6.60
2022-10-07T06:50:24.099Z,6.60
2022-10-07T06:53:12.090Z,6.70
2022-10-07T06:56:03.187Z,6.80
2022-10-07T06:58:51.323Z,6.90
2022-10-07T07:01:39.329Z,7.00
2022-10-07T07:04:28.676Z,7.10
2022-10-07T07:07:16.642Z,7.20
2022-10-07T07:10:05.258Z,7.30
2022-10-07T07:12:54.444Z,7.40
2022-10-07T07:15:43.203Z,7.50
2022-10-07T07:18:31.198Z,7.60
2022-10-07T07:21:20.758Z,7.70
2022-10-07T07:24:09.121Z,7.80
2022-10-07T07:26:57.213Z,7.90
2022-10-07T07:29:45.228Z,8.00
2022-10-07T07:32:33.231Z,8.10
2022-10-07T07:35:21.382Z,8.20
2022-10-07T07:38:11.588Z,8.40
2022-10-07T07:41:05.510Z,8.50
2022-10-07T07:43:55.284Z,8.60
2022-10-07T07:46:47.624Z,8.70
2022-10-07T07:49:36.003Z,8.80
2022-10-07T07:52:25.315Z,9.00
2022-10-07T07:55:15.150Z,9.00
2022-10-07T07:58:03.167Z,9.20
2022-10-07T08:01:01.664Z,9.40
2022-10-07T08:03:50.534Z,9.50
2022-10-07T08:06:38.615Z,9.60
2022-10-07T08:09:27.051Z,9.80
2022-10-07T08:12:16.357Z,9.90
2022-10-07T08:15:04.877Z,10.00
2022-10-07T08:17:53.730Z,10.20
2022-10-07T08:20:41.838Z,10.20
2022-10-07T08:23:31.638Z,10.40
2022-10-07T08:26:19.713Z,10.40
2022-10-07T08:29:09.101Z,10.60
2022-10-07T08:31:57.070Z,10.70
2022-10-07T08:34:45.090Z,10.80
2022-10-07T08:37:33.083Z,10.90
2022-10-07T08:40:21.184Z,11.10
2022-10-07T08:43:10.467Z,11.20
2022-10-07T08:46:00.678Z,11.20
2022-10-07T08:48:54.084Z,11.40
2022-10-07T08:51:45.763Z,11.50
2022-10-07T08:54:34.818Z,11.70
2022-10-07T08:57:41.520Z,11.60
2022-10-07T09:00:29.719Z,11.90
2022-10-07T09:03:29.008Z,12.00
2022-10-07T09:06:27.923Z,12.10
2022-10-07T09:09:20.964Z,12.30
2022-10-07T09:12:13.705Z,12.30
2022-10-07T09:15:04.367Z,12.50
2022-10-07T09:17:57.189Z,12.50
2022-10-07T09:20:52.090Z,12.70
2022-10-07T09:23:40.535Z,12.70
2022-10-07T09:26:29.760Z,12.80
2022-10-07T09:29:21.466Z,12.90
2022-10-07T09:32:13.350Z,13.00
2022-10-07T09:35:03.277Z,13.00
2022-10-07T09:38:01.998Z,13.20
2022-10-07T09:41:04.652Z,13.30
2022-10-07T09:44:02.643Z,13.30
2022-10-07T09:46:53.519Z,13.40
2022-10-07T09:49:43.697Z,13.50
2022-10-07T09:52:32.654Z,13.60
2022-10-07T09:55:42.875Z,13.60
2022-10-07T09:58:32.853Z,13.70
2022-10-07T10:01:21.417Z,13.70
2022-10-07T10:04:16.602Z,13.80
2022-10-07T10:07:07.313Z,13.90
2022-10-07T10:09:57.747Z,14.00
2022-10-07T10:12:49.817Z,14.00
2022-10-07T10:15:41.106Z,14.10
2022-10-07T10:18:39.077Z,14.20
2022-10-07T10:21:30.120Z,14.20
2022-10-07T10:24:38.242Z,14.30
2022-10-07T10:27:30.917Z,14.40
2022-10-07T10:30:23.421Z,14.50
2022-10-07T10:33:21.765Z,14.60
2022-10-07T10:36:17.200Z,14.70
2022-10-07T10:39:13.890Z,14.80
2022-10-07T10:42:06.236Z,14.80
2022-10-07T10:45:12.244Z,14.90
2022-10-07T10:48:18.715Z,14.90
2022-10-07T10:51:15.923Z,15.00
2022-10-07T10:54:21.140Z,15.10
2022-10-07T10:57:17.060Z,15.10
2022-10-07T11:00:11.217Z,15.20
2022-10-07T11:03:17.745Z,15.30
2022-10-07T11:06:11.054Z,15.40
2022-10-07T11:09:01.132Z,15.40
2022-10-07T11:11:49.601Z,15.50
2022-10-07T11:14:49.927Z,15.60
2022-10-07T11:17:39.570Z,15.70
2022-10-07T11:20:34.122Z,15.70
2022-10-07T11:23:24.680Z,15.70
2022-10-07T11:26:19.741Z,15.80
2022-10-07T11:29:18.513Z,15.80
2022-10-07T11:32:13.143Z,15.90
2022-10-07T11:35:16.210Z,15.90
2022-10-07T11:38:17.213Z,15.80
2022-10-07T11:41:11.304Z,15.80
2022-10-07T11:44:04.275Z,15.80
2022-10-07T11:46:54.534Z,15.80
2022-10-07T11:49:48.223Z,15.80
2022-10-07T11:52:41.902Z,15.90
2022-10-07T11:55:36.113Z,15.90
2022-10-07T11:58:27.124Z,15.90
2022-10-07T12:01:51.485Z,15.90
2022-10-07T12:04:39.647Z,16.00
2022-10-07T12:07:39.779Z,16.00
2022-10-07T12:10:31.939Z,16.00
2022-10-07T12:13:40.957Z,16.20
2022-10-07T12:16:53.031Z,16.20
2022-10-07T12:19:41.227Z,16.20
2022-10-07T12:22:29.214Z,16.20
2022-10-07T12:25:33.481Z,16.20
2022-10-07T12:28:27.291Z,16.20
2022-10-07T12:31:47.026Z,16.20
2022-10-07T12:34:41.322Z,16.30
2022-10-07T12:37:50.432Z,16.30
2022-10-07T12:40:42.099Z,16.30
2022-10-07T12:43:45.158Z,16.30
2022-10-07T12:46:39.188Z,16.30
2022-10-07T12:49:32.717Z,16.40
2022-10-07T12:52:24.211Z,16.40
2022-10-07T12:55:17.305Z,16.40
2022-10-07T12:58:37.708Z,16.40
2022-10-07T13:01:40.979Z,16.40
2022-10-07T13:04:50.892Z,16.50
2022-10-07T13:08:17.976Z,16.60
2022-10-07T13:11:32.020Z,16.80
2022-10-07T13:14:27.015Z,17.40
2022-10-07T13:17:31.955Z,17.40
2022-10-07T13:20:33.370Z,17.60
2022-10-07T13:23:27.014Z,17.90
2022-10-07T13:26:16.488Z,17.90
2022-10-07T13:29:05.451Z,18.00
2022-10-07T13:32:06.256Z,18.60
2022-10-07T13:34:54.365Z,20.20
2022-10-07T13:37:47.096Z,21.10
2022-10-07T13:40:35.656Z,21.30
2022-10-07T13:43:26.887Z,21.30
2022-10-07T13:46:16.914Z,20.80
2022-10-07T13:49:08.650Z,20.30
2022-10-07T13:51:59.121Z,20.00
2022-10-07T13:54:51.806Z,20.10
2022-10-07T13:57:43.942Z,20.00
2022-10-07T14:00:33.422Z,19.40
2022-10-07T14:03:21.503Z,19.20
2022-10-07T14:06:40.331Z,19.20
2022-10-07T14:09:47.159Z,19.90
2022-10-07T14:12:39.298Z,23.20
2022-10-07T14:15:30.063Z,24.20
2022-10-07T14:18:18.239Z,25.60
2022-10-07T14:21:10.849Z,26.60
2022-10-07T14:24:09.697Z,27.50
2022-10-07T14:26:57.930Z,27.10
2022-10-07T14:29:47.055Z,26.10
2022-10-07T14:32:52.511Z,25.00
2022-10-07T14:35:40.709Z,24.30
2022-10-07T14:38:29.367Z,23.90
2022-10-07T14:41:21.596Z,23.80
2022-10-07T14:44:09.707Z,23.80
2022-10-07T14:47:05.652Z,23.50
2022-10-07T14:49:55.324Z,22.80
2022-10-07T14:52:47.105Z,22.30
2022-10-07T14:55:35.454Z,21.70
2022-10-07T14:58:25.222Z,21.40
2022-10-07T15:01:13.247Z,20.00
2022-10-07T15:04:01.917Z,19.20
2022-10-07T15:06:51.058Z,19.20
2022-10-07T15:09:39.183Z,18.60
2022-10-07T15:12:27.893Z,18.00
2022-10-07T15:15:17.328Z,17.80
2022-10-07T15:18:06.972Z,17.60
2022-10-07T15:20:58.203Z,17.40
2022-10-07T15:23:50.215Z,17.20
2022-10-07T15:26:38.259Z,16.90
2022-10-07T15:29:26.370Z,17.00
2022-10-07T15:32:15.738Z,16.70
2022-10-07T15:35:03.778Z,16.60
2022-10-07T15:37:53.180Z,16.50
2022-10-07T15:40:54.194Z,16.50
2022-10-07T15:43:42.281Z,16.30
2022-10-07T15:46:30.989Z,16.20
2022-10-07T15:52:09.174Z,15.90
2022-10-07T15:54:57.603Z,15.90
2022-10-07T15:57:45.992Z,15.80
2022-10-07T16:00:34.002Z,15.80
2022-10-07T16:03:22.016Z,15.40
2022-10-07T16:06:15.881Z,15.20
2022-10-07T16:09:05.150Z,15.20
2022-10-07T16:11:53.981Z,15.10
2022-10-07T16:14:42.115Z,14.90
2022-10-07T16:17:30.181Z,14.50
2022-10-07T16:20:18.568Z,14.50
2022-10-07T16:23:08.074Z,14.40
2022-10-07T16:25:56.153Z,14.20
2022-10-07T16:29:03.901Z,14.00
2022-10-07T16:31:58.233Z,13.90
2022-10-07T16:34:46.976Z,13.70
2022-10-07T16:37:34.985Z,13.50
2022-10-07T16:40:24.335Z,13.30
2022-10-07T16:43:12.446Z,13.20
2022-10-07T16:46:02.154Z,13.20
2022-10-07T16:48:50.932Z,12.90
2022-10-07T16:51:39.183Z,12.80
2022-10-07T16:54:29.788Z,12.60
2022-10-07T16:57:19.103Z,12.60
2022-10-07T17:00:08.398Z,12.30
2022-10-07T17:05:44.927Z,12.10
2022-10-07T17:08:37.575Z,11.90
2022-10-07T17:11:31.711Z,11.90
2022-10-07T17:14:23.034Z,11.80
2022-10-07T17:17:11.211Z,11.80
2022-10-07T17:19:59.202Z,11.70
2022-10-07T17:22:47.615Z,11.60
2022-10-07T17:25:38.344Z,11.50
2022-10-07T17:28:28.732Z,11.50
2022-10-07T17:31:18.993Z,11.30
2022-10-07T17:34:08.026Z,11.30
2022-10-07T17:36:58.637Z,11.20
2022-10-07T17:39:47.643Z,11.20
2022-10-07T17:42:35.689Z,11.10
2022-10-07T17:48:15.354Z,10.90
2022-10-07T17:51:04.444Z,10.90
2022-10-07T17:53:52.604Z,10.80
2022-10-07T17:56:40.723Z,10.70
2022-10-07T17:59:28.721Z,10.70
2022-10-07T18:02:16.839Z,10.60
2022-10-07T18:05:07.462Z,10.70
2022-10-07T18:07:56.461Z,10.60
2022-10-07T18:10:44.452Z,10.60
2022-10-07T18:13:50.708Z,10.50
2022-10-07T18:16:38.785Z,10.40
2022-10-07T18:19:29.319Z,10.30
2022-10-07T18:22:19.287Z,10.30
2022-10-07T18:25:07.643Z,10.30
2022-10-07T18:27:55.614Z,10.20
2022-10-07T18:30:43.807Z,10.20
2022-10-07T18:33:32.742Z,10.20
2022-10-07T18:36:20.725Z,10.20
2022-10-07T18:39:12.102Z,10.20
2022-10-07T18:42:00.152Z,10.20
2022-10-07T18:44:50.133Z,10.20
2022-10-07T18:47:38.121Z,10.10
2022-10-07T18:50:29.046Z,10.10
2022-10-07T18:53:19.359Z,10.10
2022-10-07T18:56:12.473Z,9.70
2022-10-07T18:59:00.473Z,10.00
2022-10-07T19:01:50.965Z,10.10
2022-10-07T19:04:39.414Z,9.90
2022-10-07T19:07:28.877Z,10.00
2022-10-07T19:10:16.901Z,10.00
2022-10-07T19:13:23.836Z,10.00
2022-10-07T19:16:11.911Z,10.00
2022-10-07T19:19:00.160Z,10.00
2022-10-07T19:21:50.507Z,10.00
2022-10-07T19:24:56.314Z,9.90
2022-10-07T19:27:44.651Z,9.90
2022-10-07T19:30:34.195Z,9.90
2022-10-07T19:33:23.969Z,9.90
2022-10-07T19:36:13.071Z,9.80
2022-10-07T19:39:02.422Z,9.80
2022-10-07T19:41:51.192Z,9.70
2022-10-07T19:44:39.927Z,10.40
2022-10-07T19:47:30.211Z,9.70
2022-10-07T19:50:18.443Z,9.70
2022-10-07T19:53:06.979Z,9.60
2022-10-07T19:55:54.952Z,9.60
2022-10-07T19:58:49.948Z,9.60
2022-10-07T20:01:41.349Z,9.50
2022-10-07T20:04:30.930Z,9.50
2022-10-07T20:07:19.035Z,9.60
2022-10-07T20:10:07.988Z,9.50
2022-10-07T20:12:56.231Z,9.50
2022-10-07T20:15:44.536Z,9.50
2022-10-07T20:18:33.037Z,9.50
2022-10-07T20:21:23.879Z,9.50
2022-10-07T20:24:15.113Z,9.50
2022-10-07T20:27:04.067Z,9.40
2022-10-07T20:29:58.166Z,9.40
2022-10-07T20:32:46.454Z,9.40
2022-10-07T20:35:35.108Z,9.30
2022-10-07T20:38:24.476Z,9.30
2022-10-07T20:41:30.029Z,9.30
2022-10-07T20:44:18.944Z,9.30
2022-10-07T20:47:08.123Z,9.30
2022-10-07T20:49:58.054Z,9.30
2022-10-07T20:52:46.285Z,9.20
2022-10-07T20:55:38.120Z,9.20
2022-10-07T20:58:26.221Z,9.20
2022-10-07T21:01:14.613Z,9.20
2022-10-07T21:04:02.989Z,9.20
2022-10-07T21:06:51.308Z,9.20
2022-10-07T21:09:39.894Z,9.20
2022-10-07T21:12:29.227Z,9.20
2022-10-07T21:15:18.797Z,9.20
2022-10-07T21:18:06.851Z,9.20
2022-10-07T21:20:56.946Z,9.20
2022-10-07T21:23:45.275Z,9.20
2022-10-07T21:26:33.578Z,9.10
2022-10-07T21:29:22.920Z,9.10
2022-10-07T21:32:11.681Z,9.10
2022-10-07T21:34:59.644Z,9.10
2022-10-07T21:37:47.657Z,9.10
2022-10-07T21:40:35.648Z,9.00
2022-10-07T21:43:23.723Z,9.10
2022-10-07T21:46:13.112Z,9.00
2022-10-07T21:49:01.670Z,8.90
2022-10-07T21:51:49.707Z,9.00
2022-10-07T21:54:38.387Z,8.90
2022-10-07T21:57:26.400Z,8.90
2022-10-07T22:00:15.894Z,8.90
2022-10-07T22:03:05.253Z,8.90
2022-10-07T22:05:53.288Z,8.80
2022-10-07T22:08:43.377Z,8.90
2022-10-07T22:11:32.626Z,8.80
2022-10-07T22:14:20.654Z,8.80
2022-10-07T22:17:09.112Z,8.90
2022-10-07T22:19:58.765Z,8.80
2022-10-07T22:22:47.035Z,8.80
2022-10-07T22:25:35.236Z,8.80
2022-10-07T22:28:23.456Z,8.80
2022-10-07T22:31:11.701Z,8.80
2022-10-07T22:34:01.319Z,8.80
2022-10-07T22:36:49.674Z,8.70
2022-10-07T22:39:37.686Z,8.60
2022-10-07T22:42:26.551Z,8.70
2022-10-07T22:45:14.698Z,8.60
2022-10-07T22:48:03.015Z,8.60
2022-10-07T22:50:51.905Z,8.60
2022-10-07T22:53:42.991Z,8.60
2022-10-07T22:56:31.157Z,8.60
2022-10-07T22:59:19.301Z,8.60
2022-10-07T23:02:09.217Z,8.60
2022-10-07T23:04:57.259Z,8.60
2022-10-07T23:07:45.227Z,8.60
2022-10-07T23:10:34.568Z,8.50
2022-10-07T23:13:22.631Z,8.60
2022-10-07T23:16:12.640Z,8.50
2022-10-07T23:19:00.949Z,8.60
2022-10-07T23:21:48.935Z,8.50
2022-10-07T23:24:37.155Z,8.50
2022-10-07T23:27:26.467Z,8.50
2022-10-07T23:30:14.622Z,8.50
2022-10-07T23:33:02.596Z,8.40
2022-10-07T23:35:50.737Z,8.50
2022-10-07T23:38:40.751Z,8.50
2022-10-07T23:41:30.539Z,8.40
2022-10-07T23:44:19.847Z,8.40
2022-10-07T23:47:07.827Z,8.40
2022-10-07T23:49:55.827Z,8.40
2022-10-07T23:52:44.205Z,8.30
2022-10-07T23:55:32.386Z,8.30
2022-10-07T23:58:22.212Z,8.30
